createdAt,value
2019-01-05T00:00:42.461Z,21.17
2019-01-05T00:03:42.140Z,20.10
2019-01-05T00:06:37.327Z,19.60
2019-01-05T00:09:40.440Z,22.77
2019-01-05T00:12:40.013Z,20.27
2019-01-05T00:15:42.531Z,22.30
2019-01-05T00:18:38.714Z,15.20
2019-01-05T00:21:38.575Z,16.67
2019-01-05T00:24:38.762Z,17.87
2019-01-05T00:27:38.323Z,17.03
2019-01-05T00:30:31.035Z,16.77
2019-01-05T00:33:30.433Z,18.13
2019-01-05T00:36:29.777Z,13.40
2019-01-05T00:42:12.030Z,17.57
2019-01-05T00:45:13.560Z,14.53
2019-01-05T00:48:13.469Z,15.10
2019-01-05T00:51:09.361Z,17.47
2019-01-05T00:54:04.563Z,18.47
2019-01-05T00:57:04.501Z,13.73
2019-01-05T00:59:58.652Z,13.53
2019-01-05T01:02:54.805Z,15.70
2019-01-05T01:05:54.943Z,13.47
2019-01-05T01:11:52.320Z,12.47
2019-01-05T01:14:51.907Z,12.83
2019-01-05T01:17:51.289Z,12.63
2019-01-05T01:20:50.699Z,10.80
2019-01-05T01:26:52.999Z,11.67
2019-01-05T01:33:01.030Z,12.70
2019-01-05T01:35:57.140Z,12.33
2019-01-05T01:39:23.392Z,10.20
2019-01-05T01:42:31.452Z,11.43
2019-01-05T01:45:39.122Z,9.43
2019-01-05T01:48:46.144Z,12.40
2019-01-05T01:51:53.216Z,7.87
2019-01-05T01:54:56.772Z,14.97
2019-01-05T01:58:04.358Z,9.53
2019-01-05T02:01:05.708Z,10.20
2019-01-05T02:04:12.707Z,12.30
2019-01-05T02:07:20.404Z,9.90
2019-01-05T02:10:27.584Z,10.37
2019-01-05T02:13:36.146Z,14.73
2019-01-05T02:23:40.524Z,10.47
2019-01-05T02:30:26.443Z,13.93
2019-01-05T02:33:52.694Z,8.80
2019-01-05T02:37:18.940Z,9.20
2019-01-05T02:43:19.212Z,5.33
2019-01-05T02:46:45.453Z,4.90
2019-01-05T02:50:11.732Z,4.50
2019-01-05T02:53:37.984Z,3.90
2019-01-05T03:00:37.670Z,4.70
2019-01-05T03:04:03.925Z,3.70
2019-01-05T03:07:30.173Z,4.57
2019-01-05T03:17:46.563Z,5.40
2019-01-05T03:21:12.875Z,5.00
2019-01-05T03:24:39.120Z,5.87
2019-01-05T03:31:25.655Z,4.90
2019-01-05T03:34:51.926Z,3.80
2019-01-05T03:38:18.172Z,4.40
2019-01-05T03:41:17.969Z,4.90
2019-01-05T03:44:09.578Z,8.80
2019-01-05T03:47:09.249Z,4.50
2019-01-05T03:50:08.823Z,4.10
2019-01-05T03:53:08.240Z,6.57
2019-01-05T03:56:00.015Z,3.57
2019-01-05T03:58:59.839Z,5.20
2019-01-05T04:01:59.520Z,5.13
2019-01-05T04:04:40.293Z,4.30
2019-01-05T04:07:40.323Z,6.17
2019-01-05T04:10:39.935Z,6.37
2019-01-05T04:13:31.680Z,6.60
2019-01-05T04:16:31.792Z,7.10
2019-01-05T04:19:34.557Z,7.53
2019-01-05T04:22:36.737Z,7.07
2019-01-05T04:25:36.404Z,7.23
2019-01-05T04:28:41.825Z,5.77
2019-01-05T04:31:41.510Z,4.90
2019-01-05T04:34:41.689Z,7.07
2019-01-05T04:40:30.144Z,6.67
2019-01-05T04:43:30.244Z,5.50
2019-01-05T04:46:29.593Z,7.23
2019-01-05T04:49:29.940Z,7.63
2019-01-05T04:52:24.887Z,5.80
2019-01-05T04:55:27.851Z,8.93
2019-01-05T04:58:24.400Z,7.63
2019-01-05T05:01:24.619Z,7.50
2019-01-05T05:04:31.008Z,3.90
2019-01-05T05:07:28.031Z,5.83
2019-01-05T05:10:25.701Z,6.13
2019-01-05T05:13:28.283Z,5.53
2019-01-05T05:19:25.971Z,6.27
2019-01-05T05:22:24.555Z,6.30
2019-01-05T05:25:24.469Z,4.23
2019-01-05T05:28:24.438Z,5.47
2019-01-05T05:31:23.824Z,3.87
2019-01-05T05:34:16.651Z,4.37
2019-01-05T05:37:22.307Z,9.60
2019-01-05T05:40:22.179Z,5.00
2019-01-05T05:46:51.173Z,4.97
2019-01-05T05:50:17.430Z,5.53
2019-01-05T05:53:43.684Z,5.20
2019-01-05T05:57:09.919Z,4.77
2019-01-05T06:00:36.171Z,5.03
2019-01-05T06:07:25.076Z,4.30
2019-01-05T06:10:51.332Z,9.93
2019-01-05T06:24:23.524Z,3.80
2019-01-05T06:31:29.928Z,3.67
2019-01-05T06:34:56.182Z,3.23
2019-01-05T06:38:22.415Z,1.87
2019-01-05T06:44:43.072Z,3.13
2019-01-05T06:47:42.479Z,1.87
2019-01-05T06:50:37.915Z,2.93
2019-01-05T06:53:37.628Z,3.50
2019-01-05T07:00:22.963Z,4.20
2019-01-05T07:03:49.212Z,2.83
2019-01-05T07:07:15.469Z,5.73
2019-01-05T07:10:41.703Z,4.37
2019-01-05T07:14:07.954Z,3.90
2019-01-05T07:17:34.216Z,6.03
2019-01-05T07:20:49.325Z,4.43
2019-01-05T07:23:49.276Z,7.40
2019-01-05T07:26:49.603Z,8.70
2019-01-05T07:29:52.444Z,9.27
2019-01-05T07:32:55.161Z,5.73
2019-01-05T07:35:57.705Z,6.70
2019-01-05T07:38:58.042Z,6.07
2019-01-05T07:42:01.407Z,17.30
2019-01-05T07:45:01.705Z,9.33
2019-01-05T07:48:01.381Z,7.13
2019-01-05T07:51:01.447Z,10.27
2019-01-05T07:54:01.085Z,13.90
2019-01-05T07:57:00.608Z,13.43
2019-01-05T08:00:00.224Z,8.90
2019-01-05T08:03:05.976Z,11.07
2019-01-05T08:06:06.230Z,12.77
2019-01-05T08:09:02.540Z,10.90
2019-01-05T08:12:02.142Z,6.80
2019-01-05T08:15:01.793Z,10.30
2019-01-05T08:18:01.552Z,14.50
2019-01-05T08:20:57.867Z,17.03
2019-01-05T08:23:57.802Z,9.67
2019-01-05T08:26:57.496Z,13.93
2019-01-05T08:29:57.028Z,9.60
2019-01-05T08:32:53.762Z,11.50
2019-01-05T08:35:53.096Z,9.70
2019-01-05T08:38:53.156Z,14.03
2019-01-05T08:41:48.067Z,12.83
2019-01-05T08:44:48.159Z,13.50
2019-01-05T08:47:47.627Z,8.43
2019-01-05T08:50:47.057Z,12.33
2019-01-05T08:53:47.286Z,11.33
2019-01-05T08:59:30.017Z,12.70
2019-01-05T09:02:35.427Z,7.50
2019-01-05T09:05:35.655Z,11.47
2019-01-05T09:08:35.376Z,7.13
2019-01-05T09:11:34.699Z,8.43
2019-01-05T09:14:34.112Z,9.73
2019-01-05T09:17:34.220Z,7.53
2019-01-05T09:20:33.709Z,9.80
2019-01-05T09:23:33.959Z,10.40
2019-01-05T09:26:33.311Z,7.77
2019-01-05T09:29:33.063Z,5.77
2019-01-05T09:32:32.500Z,9.57
2019-01-05T09:35:32.104Z,8.70
2019-01-05T09:38:32.487Z,7.07
2019-01-05T09:44:47.060Z,8.00
2019-01-05T09:47:47.026Z,8.00
2019-01-05T09:50:50.571Z,6.33
2019-01-05T09:53:50.245Z,14.33
2019-01-05T09:59:31.824Z,5.13
2019-01-05T10:02:38.194Z,6.80
2019-01-05T10:05:38.939Z,7.60
2019-01-05T10:08:39.109Z,7.20
2019-01-05T10:11:43.339Z,11.60
2019-01-05T10:14:40.703Z,5.90
2019-01-05T10:17:37.748Z,6.03
2019-01-05T10:20:39.875Z,7.33
2019-01-05T10:23:39.834Z,6.27
2019-01-05T10:26:39.188Z,5.50
2019-01-05T10:29:38.823Z,4.33
2019-01-05T10:32:37.855Z,6.20
2019-01-05T10:35:38.933Z,9.93
2019-01-05T10:38:38.768Z,6.50
2019-01-05T10:41:36.383Z,7.20
2019-01-05T10:44:17.492Z,6.03
2019-01-05T10:47:09.885Z,5.90
2019-01-05T10:50:09.236Z,5.00
2019-01-05T10:53:08.935Z,6.53
2019-01-05T10:56:09.341Z,9.47
2019-01-05T11:01:51.839Z,5.03
2019-01-05T11:04:52.193Z,5.67
2019-01-05T11:07:51.672Z,5.90
2019-01-05T11:10:51.225Z,3.83
2019-01-05T11:13:50.724Z,4.83
2019-01-05T11:16:50.106Z,5.00
2019-01-05T11:19:49.721Z,3.00
2019-01-05T11:22:48.322Z,8.77
2019-01-05T11:25:29.084Z,6.50
2019-01-05T11:28:28.539Z,8.37
2019-01-05T11:31:27.948Z,4.20
2019-01-05T11:34:19.414Z,5.47
2019-01-05T11:37:19.400Z,4.63
2019-01-05T11:40:18.936Z,7.13
2019-01-05T11:43:18.732Z,7.70
2019-01-05T11:46:18.966Z,4.57
2019-01-05T11:49:24.283Z,8.00
2019-01-05T11:52:22.316Z,8.83
2019-01-05T11:55:28.348Z,5.97
2019-01-05T11:58:25.919Z,7.57
2019-01-05T12:01:25.542Z,5.27
2019-01-05T12:04:25.181Z,7.30
2019-01-05T12:07:25.552Z,5.40
2019-01-05T12:10:29.621Z,6.10
2019-01-05T12:13:29.846Z,9.63
2019-01-05T12:16:24.244Z,10.23
2019-01-05T12:19:24.153Z,5.70
2019-01-05T12:22:24.006Z,7.03
2019-01-05T12:25:29.211Z,10.17
2019-01-05T12:28:35.956Z,9.03
2019-01-05T12:31:35.402Z,7.57
2019-01-05T12:34:35.072Z,6.43
2019-01-05T12:37:34.780Z,5.73
2019-01-05T12:40:31.367Z,9.30
2019-01-05T12:43:28.528Z,7.30
2019-01-05T12:46:19.322Z,12.80
2019-01-05T12:49:19.245Z,5.63
2019-01-05T12:52:10.549Z,13.07
2019-01-05T12:55:10.491Z,10.57
2019-01-05T12:58:10.732Z,5.17
2019-01-05T13:01:13.477Z,7.13
2019-01-05T13:04:13.748Z,3.70
2019-01-05T13:07:13.232Z,11.23
2019-01-05T13:10:19.363Z,11.53
2019-01-05T13:12:59.818Z,6.93
2019-01-05T13:15:59.220Z,4.70
2019-01-05T13:18:59.512Z,8.93
2019-01-05T13:21:59.067Z,11.07
2019-01-05T13:24:58.421Z,9.37
2019-01-05T13:27:39.702Z,8.00
2019-01-05T13:30:40.027Z,8.73
2019-01-05T13:33:39.464Z,11.00
2019-01-05T13:36:39.081Z,10.87
2019-01-05T13:39:38.757Z,4.13
2019-01-05T13:42:38.383Z,6.83
2019-01-05T13:45:30.928Z,7.17
2019-01-05T13:48:30.715Z,16.67
2019-01-05T13:54:12.740Z,14.33
2019-01-05T13:57:03.916Z,10.93
2019-01-05T14:00:04.300Z,12.93
2019-01-05T14:03:03.905Z,12.17
2019-01-05T14:05:55.636Z,9.33
2019-01-05T14:08:36.827Z,14.60
2019-01-05T14:11:27.820Z,11.00
2019-01-05T14:14:30.639Z,11.50
2019-01-05T14:17:31.904Z,9.83
2019-01-05T14:20:24.978Z,13.80
2019-01-05T14:23:24.089Z,18.00
2019-01-05T14:26:24.101Z,12.30
2019-01-05T14:29:18.728Z,17.57
2019-01-05T14:32:18.439Z,17.90
2019-01-05T14:35:17.825Z,11.60
2019-01-05T14:38:11.991Z,11.93
2019-01-05T14:41:12.397Z,18.30
2019-01-05T14:44:14.835Z,17.97
2019-01-05T14:47:14.583Z,19.80
2019-01-05T14:50:14.008Z,17.93
2019-01-05T14:53:14.353Z,16.13
2019-01-05T14:56:14.316Z,21.93
2019-01-05T14:59:13.871Z,21.47
2019-01-05T15:02:14.105Z,24.13
2019-01-05T15:05:13.549Z,22.07
2019-01-05T15:08:13.308Z,21.40
2019-01-05T15:11:12.931Z,22.37
2019-01-05T15:14:13.309Z,22.03
2019-01-05T15:17:12.763Z,26.03
2019-01-05T15:20:12.165Z,24.03
2019-01-05T15:23:17.628Z,19.23
2019-01-05T15:26:17.981Z,17.30
2019-01-05T15:29:18.291Z,16.43
2019-01-05T15:32:17.936Z,19.80
2019-01-05T15:35:17.477Z,17.43
2019-01-05T15:38:13.700Z,19.83
2019-01-05T15:41:13.076Z,22.90
2019-01-05T15:44:12.531Z,21.80
2019-01-05T15:47:11.998Z,23.37
2019-01-05T15:50:11.371Z,16.40
2019-01-05T15:53:11.570Z,30.63
2019-01-05T15:59:18.387Z,32.27
2019-01-05T16:02:24.623Z,21.17
2019-01-05T16:08:07.576Z,29.53
2019-01-05T16:11:09.981Z,26.63
2019-01-05T16:13:50.777Z,21.83
2019-01-05T16:16:53.215Z,29.67
2019-01-05T16:19:53.198Z,29.43
2019-01-05T16:22:55.742Z,33.30
2019-01-05T16:25:47.980Z,22.57
2019-01-05T16:28:48.156Z,22.43
2019-01-05T16:31:47.832Z,23.17
2019-01-05T16:34:53.136Z,19.70
2019-01-05T16:37:53.203Z,23.10
2019-01-05T16:40:52.682Z,23.60
2019-01-05T16:43:58.851Z,36.03
2019-01-05T16:46:57.512Z,27.57
2019-01-05T16:49:57.591Z,23.30
2019-01-05T16:52:57.806Z,33.20
2019-01-05T16:56:00.513Z,37.93
2019-01-05T16:59:00.448Z,32.70
2019-01-05T17:02:06.094Z,36.60
2019-01-05T17:05:13.796Z,47.00
2019-01-05T17:08:13.220Z,28.93
2019-01-05T17:11:12.851Z,30.40
2019-01-05T17:14:18.224Z,37.53
2019-01-05T17:20:09.476Z,31.50
2019-01-05T17:26:11.973Z,40.13
2019-01-05T17:29:11.892Z,34.87
2019-01-05T17:32:12.067Z,27.50
2019-01-05T17:35:11.535Z,25.53
2019-01-05T17:38:11.003Z,27.97
2019-01-05T17:41:10.694Z,45.30
2019-01-05T17:44:10.225Z,37.20
2019-01-05T17:47:10.410Z,37.37
2019-01-05T17:50:09.861Z,30.43
2019-01-05T17:53:09.508Z,34.47
2019-01-05T17:56:09.776Z,29.63
2019-01-05T17:59:09.388Z,36.27
2019-01-05T18:02:12.504Z,38.83
2019-01-05T18:05:12.228Z,30.67
2019-01-05T18:08:11.901Z,31.87
2019-01-05T18:11:12.304Z,32.30
2019-01-05T18:14:12.514Z,40.17
2019-01-05T18:17:11.916Z,34.30
2019-01-05T18:20:05.952Z,37.53
2019-01-05T18:23:06.976Z,36.23
2019-01-05T18:26:06.806Z,35.50
2019-01-05T18:29:02.612Z,40.87
2019-01-05T18:32:02.076Z,44.17
2019-01-05T18:35:02.355Z,38.03
2019-01-05T18:38:01.979Z,29.00
2019-01-05T18:41:02.164Z,44.37
2019-01-05T18:44:03.958Z,32.70
2019-01-05T18:47:03.603Z,34.70
2019-01-05T18:49:55.317Z,38.70
2019-01-05T18:52:58.207Z,25.80
2019-01-05T18:55:53.600Z,31.97
2019-01-05T18:58:51.855Z,27.50
2019-01-05T19:01:51.323Z,27.07
2019-01-05T19:04:53.880Z,21.70
2019-01-05T19:07:53.473Z,36.93
2019-01-05T19:10:54.826Z,38.90
2019-01-05T19:16:56.571Z,36.97
2019-01-05T19:19:56.061Z,27.43
2019-01-05T19:22:55.590Z,32.43
2019-01-05T19:25:58.308Z,29.00
2019-01-05T19:28:58.480Z,30.53
2019-01-05T19:31:49.946Z,18.77
2019-01-05T19:34:50.323Z,26.33
2019-01-05T19:37:30.897Z,21.03
2019-01-05T19:40:30.921Z,33.03
2019-01-05T19:46:33.455Z,21.23
2019-01-05T19:49:28.047Z,32.57
2019-01-05T19:52:27.428Z,25.20
2019-01-05T19:55:27.124Z,30.37
2019-01-05T19:58:26.503Z,28.23
2019-01-05T20:01:22.393Z,21.60
2019-01-05T20:04:22.208Z,24.70
2019-01-05T20:07:21.827Z,20.27
2019-01-05T20:10:16.780Z,12.07
2019-01-05T20:12:58.055Z,18.30
2019-01-05T20:15:58.826Z,12.93
2019-01-05T20:19:04.766Z,21.30
2019-01-05T20:22:04.478Z,12.23
2019-01-05T20:25:04.652Z,20.07
2019-01-05T20:28:10.807Z,16.00
2019-01-05T20:31:07.332Z,17.23
2019-01-05T20:37:15.494Z,15.87
2019-01-05T20:40:22.501Z,15.03
2019-01-05T20:43:29.553Z,19.33
2019-01-05T20:46:36.819Z,19.80
2019-01-05T20:49:43.824Z,20.60
2019-01-05T20:52:50.960Z,17.10
2019-01-05T20:55:57.946Z,20.23
2019-01-05T20:59:05.017Z,18.90
2019-01-05T21:02:06.100Z,15.43
2019-01-05T21:05:13.108Z,20.03
2019-01-05T21:08:20.296Z,19.13
2019-01-05T21:11:20.577Z,19.03
2019-01-05T21:14:16.988Z,19.83
2019-01-05T21:17:17.067Z,18.70
2019-01-05T21:20:24.088Z,16.53
2019-01-05T21:23:31.314Z,16.50
2019-01-05T21:26:38.423Z,18.27
2019-01-05T21:29:45.424Z,12.03
2019-01-05T21:32:44.083Z,14.13
2019-01-05T21:35:40.577Z,16.63
2019-01-05T21:38:47.607Z,11.47
2019-01-05T21:41:54.675Z,15.10
2019-01-05T21:45:01.684Z,12.77
2019-01-05T21:48:04.664Z,14.67
2019-01-05T21:51:11.884Z,11.87
2019-01-05T21:54:18.932Z,14.17
2019-01-05T21:57:19.370Z,13.73
2019-01-05T22:00:27.760Z,11.07
2019-01-05T22:03:34.812Z,19.23
2019-01-05T22:06:41.816Z,14.43
2019-01-05T22:09:48.855Z,15.17
2019-01-05T22:12:55.902Z,12.20
2019-01-05T22:16:03.141Z,14.73
2019-01-05T22:19:10.167Z,12.83
2019-01-05T22:22:17.172Z,19.40
2019-01-05T22:25:24.288Z,18.23
2019-01-05T22:28:31.324Z,15.30
2019-01-05T22:31:38.324Z,14.73
2019-01-05T22:34:32.429Z,16.57
2019-01-05T22:37:30.851Z,17.37
2019-01-05T22:40:29.463Z,12.40
2019-01-05T22:43:28.921Z,21.50
2019-01-05T22:46:28.414Z,14.33
2019-01-05T22:49:31.124Z,14.53
2019-01-05T22:52:21.532Z,11.67
2019-01-05T22:55:21.100Z,13.00
2019-01-05T22:58:21.356Z,12.80
2019-01-05T23:01:20.980Z,12.27
2019-01-05T23:04:20.553Z,8.60
2019-01-05T23:07:27.560Z,11.73
2019-01-05T23:10:34.571Z,8.83
2019-01-05T23:13:41.595Z,10.10
2019-01-05T23:16:48.587Z,10.83
2019-01-05T23:19:55.540Z,13.93
2019-01-05T23:23:02.567Z,13.17
2019-01-05T23:26:09.588Z,17.23
2019-01-05T23:28:50.389Z,11.50
2019-01-05T23:31:52.602Z,15.53
2019-01-05T23:34:52.356Z,12.53
2019-01-05T23:37:52.681Z,16.47
2019-01-05T23:40:52.302Z,20.17
2019-01-05T23:43:51.874Z,14.70
2019-01-05T23:46:51.299Z,22.60
2019-01-05T23:49:50.976Z,16.50
2019-01-05T23:55:14.595Z,19.77
2019-01-05T23:58:17.568Z,22.77
